Time;durP1;ratioP1;P1;durP2;ratioP2;P2;SDS_P1;SDS_P2;PMS_P1;PMS_P2;Temp;Humidity;BMP_temperature;BMP_pressure;BME280_temperature;BME280_humidity;BME280_pressure;Samples;Min_cycle;Max_cycle;Signal;HPM_P1;HPM_P2
2023/07/16 00:03:28;;;;;;;10.53;9.70;;;22.20;99.90;;;;;;10441304;28;20206;-78
2023/07/16 00:08:32;;;;;;;10.10;9.47;;;22.10;99.90;;;;;;10442830;28;20276;-79
2023/07/16 00:13:34;;;;;;;10.90;10.30;;;22.10;99.90;;;;;;10425306;28;20199;-79
2023/07/16 00:18:36;;;;;;;9.93;9.43;;;22.10;99.90;;;;;;10443744;28;20237;-77
2023/07/16 00:23:39;;;;;;;8.80;8.40;;;22.10;99.90;;;;;;10438970;28;20818;-78
2023/07/16 00:28:41;;;;;;;8.97;8.40;;;22.00;99.90;;;;;;10438917;28;20299;-79
2023/07/16 00:33:44;;;;;;;8.30;7.90;;;22.00;99.90;;;;;;10438622;28;20225;-77
2023/07/16 00:38:47;;;;;;;7.57;7.20;;;22.00;99.90;;;;;;10434431;28;20666;-78
2023/07/16 00:43:49;;;;;;;7.60;7.30;;;21.90;99.90;;;;;;10406600;28;20210;-79
2023/07/16 00:48:52;;;;;;;7.10;6.70;;;21.90;99.90;;;;;;10425965;28;20226;-78
2023/07/16 00:53:55;;;;;;;8.13;7.43;;;21.80;99.90;;;;;;10409279;28;20670;-79
2023/07/16 00:58:57;;;;;;;7.13;6.83;;;21.80;99.90;;;;;;10443932;28;20305;-78
2023/07/16 01:04:00;;;;;;;7.37;7.03;;;21.80;99.90;;;;;;10408567;28;20274;-78
2023/07/16 01:09:08;;;;;;;7.40;7.00;;;21.80;99.90;;;;;;10428320;28;20252;-79
2023/07/16 01:14:10;;;;;;;6.77;6.27;;;21.80;99.90;;;;;;10415953;28;20225;-78
2023/07/16 01:19:13;;;;;;;6.90;6.40;;;21.80;99.90;;;;;;10416560;28;20232;-77
2023/07/16 01:24:42;;;;;;;7.33;6.73;;;21.80;99.90;;;;;;10409644;28;20199;-77
2023/07/16 01:29:50;;;;;;;5.80;5.60;;;21.90;99.90;;;;;;10409845;28;20634;-79
2023/07/16 01:34:54;;;;;;;6.10;5.90;;;22.00;99.90;;;;;;10411595;28;20483;-79
2023/07/16 01:39:56;;;;;;;6.67;6.20;;;22.00;99.90;;;;;;10409244;28;20225;-79
2023/07/16 01:45:00;;;;;;;6.50;6.10;;;22.00;99.90;;;;;;10410339;28;20195;-79
2023/07/16 01:50:03;;;;;;;5.83;5.57;;;22.00;99.90;;;;;;10416544;28;20218;-77
2023/07/16 01:55:06;;;;;;;5.90;5.60;;;22.00;99.90;;;;;;10424159;28;20206;-79
2023/07/16 02:00:11;;;;;;;5.60;5.40;;;22.00;99.90;;;;;;10398717;28;20249;-79
2023/07/16 02:05:22;;;;;;;5.73;5.43;;;21.80;99.90;;;;;;10405131;28;20729;-78
2023/07/16 02:10:24;;;;;;;5.83;5.63;;;21.70;99.90;;;;;;10423208;28;20226;-79
2023/07/16 02:15:27;;;;;;;5.20;5.00;;;21.60;99.90;;;;;;10381571;28;20234;-78
2023/07/16 02:20:29;;;;;;;5.40;5.10;;;21.50;99.90;;;;;;10413999;28;20549;-78
2023/07/16 02:25:32;;;;;;;5.67;5.37;;;21.40;99.90;;;;;;10426979;28;20685;-78
2023/07/16 02:30:36;;;;;;;6.07;5.77;;;21.20;99.90;;;;;;10414980;28;20763;-78
2023/07/16 02:35:38;;;;;;;5.60;5.20;;;21.20;99.90;;;;;;10419649;28;20279;-77
2023/07/16 02:40:44;;;;;;;5.90;5.60;;;21.10;99.90;;;;;;10413041;28;20199;-78
2023/07/16 02:45:47;;;;;;;5.57;5.27;;;21.10;99.90;;;;;;10410703;28;20203;-78
2023/07/16 02:50:49;;;;;;;5.83;5.47;;;21.10;99.90;;;;;;10440278;28;20301;-77
2023/07/16 02:55:51;;;;;;;5.70;5.40;;;21.00;99.90;;;;;;10434836;28;20247;-78
2023/07/16 03:00:55;;;;;;;5.77;5.30;;;21.00;99.90;;;;;;10424341;28;20237;-79
2023/07/16 03:05:57;;;;;;;5.60;5.30;;;20.90;99.90;;;;;;10422387;28;20229;-78
2023/07/16 03:10:59;;;;;;;5.13;4.93;;;20.90;99.90;;;;;;10415674;28;20251;-78
2023/07/16 03:16:04;;;;;;;4.70;4.50;;;20.80;99.90;;;;;;10409600;28;20209;-79
2023/07/16 03:21:06;;;;;;;5.03;4.83;;;20.80;99.90;;;;;;10414937;28;20190;-79
2023/07/16 03:26:08;;;;;;;4.57;4.37;;;20.70;99.90;;;;;;10393318;28;20217;-79
2023/07/16 03:31:11;;;;;;;5.00;4.70;;;20.70;99.90;;;;;;10416351;28;20305;-79
2023/07/16 03:36:16;;;;;;;4.30;4.10;;;20.60;99.90;;;;;;10414249;28;20349;-78
2023/07/16 03:41:18;;;;;;;4.37;4.07;;;20.50;99.90;;;;;;10412800;28;20191;-77
2023/07/16 03:46:23;;;;;;;5.17;3.80;;;20.50;99.90;;;;;;10410360;28;20587;-79
2023/07/16 03:51:25;;;;;;;4.47;3.57;;;20.50;99.90;;;;;;10407867;28;20223;-79
2023/07/16 03:56:29;;;;;;;4.03;3.73;;;20.40;99.90;;;;;;10417883;28;20237;-79
2023/07/16 04:01:33;;;;;;;4.33;4.13;;;20.40;99.90;;;;;;10411414;28;20564;-80
2023/07/16 04:06:35;;;;;;;4.13;3.83;;;20.30;99.90;;;;;;10414770;28;20269;-78
2023/07/16 04:11:37;;;;;;;3.70;3.40;;;20.40;99.90;;;;;;10437394;28;20218;-78
2023/07/16 04:16:40;;;;;;;3.87;3.57;;;20.30;99.90;;;;;;10439941;28;20667;-78
2023/07/16 04:21:42;;;;;;;3.83;3.63;;;20.30;99.90;;;;;;10434825;28;20205;-79
2023/07/16 04:26:44;;;;;;;3.90;3.60;;;20.40;99.90;;;;;;10434588;28;20309;-79
2023/07/16 04:31:48;;;;;;;3.80;3.50;;;20.40;99.90;;;;;;10436702;28;20259;-77
2023/07/16 04:36:50;;;;;;;3.80;3.47;;;20.40;99.90;;;;;;10437234;28;20232;-79
2023/07/16 04:41:52;;;;;;;3.40;3.30;;;20.30;99.90;;;;;;10431984;28;20218;-78
2023/07/16 04:46:56;;;;;;;4.07;3.70;;;20.30;99.90;;;;;;10433270;28;20301;-79
2023/07/16 04:51:58;;;;;;;3.57;3.37;;;20.30;99.90;;;;;;10434446;28;20568;-79
2023/07/16 04:57:00;;;;;;;3.60;3.40;;;20.30;99.90;;;;;;10435074;28;20218;-79
2023/07/16 05:02:06;;;;;;;4.30;3.20;;;20.40;99.90;;;;;;10432522;28;20210;-79
2023/07/16 05:07:08;;;;;;;4.00;3.80;;;20.50;99.90;;;;;;10432866;28;20217;-79
2023/07/16 05:12:10;;;;;;;3.90;3.60;;;20.50;99.90;;;;;;10418485;28;20673;-78
2023/07/16 05:17:14;;;;;;;3.63;3.37;;;20.60;99.90;;;;;;10431078;28;20245;-77
2023/07/16 05:22:16;;;;;;;3.03;2.83;;;20.70;99.90;;;;;;10427852;28;20214;-77
2023/07/16 05:27:18;;;;;;;3.70;3.40;;;20.70;99.90;;;;;;10432546;28;20213;-76
2023/07/16 05:32:23;;;;;;;3.67;3.40;;;20.80;99.90;;;;;;10434756;28;20276;-79
2023/07/16 05:37:25;;;;;;;3.43;2.97;;;20.90;99.90;;;;;;10474150;22;20263;-78
2023/07/16 05:42:27;;;;;;;2.90;2.80;;;20.90;99.90;;;;;;10500566;28;20266;-78
2023/07/16 05:47:30;;;;;;;3.40;3.10;;;21.00;99.90;;;;;;10499968;28;20305;-78
2023/07/16 05:52:32;;;;;;;4.43;3.30;;;21.10;99.90;;;;;;10484647;28;20246;-79
2023/07/16 05:57:34;;;;;;;5.03;3.30;;;21.20;99.90;;;;;;10501108;28;20248;-77
2023/07/16 06:02:38;;;;;;;5.03;3.20;;;21.40;99.90;;;;;;10500969;28;20258;-78
2023/07/16 06:07:39;;;;;;;2.93;2.73;;;21.50;99.90;;;;;;10499748;28;20324;-78
2023/07/16 06:12:42;;;;;;;3.37;2.47;;;21.50;99.90;;;;;;10501662;28;20196;-79
2023/07/16 06:17:45;;;;;;;2.87;2.53;;;21.60;99.90;;;;;;10500392;28;20718;-79
2023/07/16 06:22:47;;;;;;;3.00;2.63;;;21.60;99.90;;;;;;10500617;28;20213;-77
2023/07/16 06:27:49;;;;;;;7.67;2.50;;;21.60;99.90;;;;;;10499687;28;20220;-78
2023/07/16 06:32:52;;;;;;;4.13;2.20;;;21.60;99.90;;;;;;10502972;28;20258;-79
2023/07/16 06:37:55;;;;;;;2.27;2.10;;;21.50;99.90;;;;;;10482055;28;20704;-77
2023/07/16 06:42:57;;;;;;;9.13;2.13;;;21.50;99.90;;;;;;10497585;28;20205;-78
2023/07/16 06:48:00;;;;;;;3.67;2.17;;;21.60;99.90;;;;;;10498983;28;20225;-78
2023/07/16 06:53:02;;;;;;;3.17;2.70;;;21.70;99.90;;;;;;10486297;28;20201;-79
2023/07/16 06:58:04;;;;;;;5.37;2.00;;;21.90;99.90;;;;;;10500230;28;20245;-79
2023/07/16 07:03:08;;;;;;;2.50;1.93;;;22.20;99.90;;;;;;10502808;28;20614;-78
2023/07/16 07:08:10;;;;;;;2.47;2.20;;;22.40;99.90;;;;;;10499191;28;20231;-78
2023/07/16 07:13:12;;;;;;;3.20;2.13;;;22.80;99.90;;;;;;10487627;28;20633;-78
2023/07/16 07:18:15;;;;;;;2.87;2.67;;;23.00;99.90;;;;;;10503107;28;20272;-78
2023/07/16 07:23:17;;;;;;;2.53;2.33;;;23.10;99.90;;;;;;10489473;28;20208;-77
2023/07/16 07:28:21;;;;;;;3.30;3.10;;;23.20;99.90;;;;;;10474760;28;20213;-77
2023/07/16 07:33:24;;;;;;;4.33;2.00;;;23.30;99.90;;;;;;10494639;28;20251;-78
2023/07/16 07:38:26;;;;;;;5.20;3.87;;;23.40;99.90;;;;;;10493464;28;20217;-78
2023/07/16 07:43:28;;;;;;;3.37;2.07;;;23.70;99.90;;;;;;10497905;28;20195;-78
2023/07/16 07:48:31;;;;;;;4.20;1.90;;;24.00;99.90;;;;;;10507493;28;20677;-78
2023/07/16 07:53:34;;;;;;;2.20;2.00;;;24.30;99.90;;;;;;10504286;28;20255;-79
2023/07/16 07:58:36;;;;;;;2.37;2.20;;;24.50;99.90;;;;;;10507827;28;20213;-79
2023/07/16 08:03:40;;;;;;;4.03;2.10;;;24.60;99.90;;;;;;10508631;28;20235;-79
2023/07/16 08:08:42;;;;;;;3.13;2.13;;;24.70;99.90;;;;;;10509637;28;20696;-80
2023/07/16 08:13:44;;;;;;;1.90;1.80;;;24.70;99.90;;;;;;10483854;28;20236;-79
2023/07/16 08:18:47;;;;;;;4.43;1.73;;;25.00;99.90;;;;;;10509624;28;20247;-78
2023/07/16 08:23:50;;;;;;;2.83;2.60;;;25.20;99.90;;;;;;10503677;28;20200;-80
2023/07/16 08:28:52;;;;;;;2.33;2.00;;;25.40;99.90;;;;;;10492962;28;20221;-81
2023/07/16 08:33:56;;;;;;;4.60;2.33;;;25.70;99.60;;;;;;10499398;28;20197;-81
2023/07/16 08:38:58;;;;;;;2.70;1.73;;;25.80;99.90;;;;;;10503504;28;20225;-81
2023/07/16 08:44:00;;;;;;;3.43;2.07;;;25.80;99.90;;;;;;10485479;28;20219;-82
2023/07/16 08:49:06;;;;;;;2.67;2.17;;;26.00;99.60;;;;;;10503131;28;20278;-81
2023/07/16 08:54:08;;;;;;;1.77;1.50;;;26.70;98.30;;;;;;10496128;28;20211;-80
2023/07/16 08:59:11;;;;;;;2.47;2.00;;;26.90;96.20;;;;;;10482058;28;20221;-81
2023/07/16 09:04:15;;;;;;;2.03;1.93;;;26.90;93.30;;;;;;10477608;28;20274;-81
2023/07/16 09:09:22;;;;;;;4.43;2.50;;;27.10;95.10;;;;;;10498007;28;20225;-81
2023/07/16 09:14:24;;;;;;;2.40;2.17;;;27.50;93.80;;;;;;10497172;28;20211;-81
2023/07/16 09:19:27;;;;;;;1.90;1.80;;;27.90;92.40;;;;;;10480661;28;20279;-81
2023/07/16 09:24:30;;;;;;;3.03;2.50;;;28.20;89.80;;;;;;10500026;28;20225;-81
2023/07/16 09:29:32;;;;;;;2.17;1.90;;;28.50;91.40;;;;;;10505029;28;20233;-82
2023/07/16 09:34:35;;;;;;;3.23;1.90;;;28.90;87.40;;;;;;10503480;28;20227;-82
2023/07/16 09:39:38;;;;;;;1.90;1.80;;;29.10;86.90;;;;;;10503368;28;20221;-82
2023/07/16 09:44:44;;;;;;;1.77;1.67;;;29.50;86.60;;;;;;10502195;28;20851;-82
2023/07/16 09:49:48;;;;;;;3.53;1.90;;;29.90;86.80;;;;;;10496156;28;20427;-82
2023/07/16 09:54:53;;;;;;;3.20;1.87;;;30.50;82.80;;;;;;10495897;28;20200;-82
2023/07/16 09:59:59;;;;;;;2.00;1.90;;;31.20;75.30;;;;;;10475441;28;20213;-82
2023/07/16 10:05:12;;;;;;;1.93;1.83;;;32.10;74.50;;;;;;10474575;28;20235;-82
2023/07/16 10:10:17;;;;;;;2.10;1.90;;;32.20;67.70;;;;;;10493819;28;20252;-83
2023/07/16 10:15:26;;;;;;;2.10;2.00;;;32.90;68.40;;;;;;10481320;28;20196;-83
2023/07/16 10:20:34;;;;;;;3.00;1.83;;;32.90;70.00;;;;;;9538834;28;10000958;-82
2023/07/16 10:25:36;;;;;;;2.70;1.53;;;33.50;69.50;;;;;;10402865;28;20221;-82
2023/07/16 10:30:38;;;;;;;2.10;1.90;;;34.10;64.60;;;;;;10395261;28;20221;-82
2023/07/16 10:35:43;;;;;;;2.50;2.03;;;33.20;63.40;;;;;;10414432;28;20216;-81
2023/07/16 10:40:47;;;;;;;2.63;1.80;;;31.90;63.50;;;;;;10388714;28;20226;-81
2023/07/16 10:45:51;;;;;;;4.37;2.20;;;30.50;63.40;;;;;;10369298;28;20279;-81
2023/07/16 10:50:56;;;;;;;2.10;1.90;;;29.20;68.40;;;;;;10405987;28;20236;-82
2023/07/16 10:56:01;;;;;;;2.03;1.87;;;28.40;69.50;;;;;;10376015;28;20285;-81
2023/07/16 11:01:03;;;;;;;4.30;2.30;;;27.80;77.00;;;;;;10413962;28;20220;-81
2023/07/16 11:06:09;;;;;;;3.70;3.40;;;27.50;77.60;;;;;;10415238;28;20203;-80
2023/07/16 11:11:11;;;;;;;2.20;2.10;;;27.20;78.20;;;;;;10412005;28;20222;-80
2023/07/16 11:16:13;;;;;;;2.33;2.23;;;27.20;78.30;;;;;;10413995;28;20198;-79
2023/07/16 11:21:19;;;;;;;1.83;1.73;;;27.20;76.40;;;;;;10400918;28;20250;-80
2023/07/16 11:26:22;;;;;;;1.87;1.77;;;27.20;72.00;;;;;;10380791;28;20620;-81
2023/07/16 11:31:24;;;;;;;2.60;2.40;;;27.10;73.20;;;;;;10414521;28;20222;-80
2023/07/16 11:36:29;;;;;;;2.67;2.43;;;27.10;73.60;;;;;;10421507;28;20199;-81
2023/07/16 11:41:32;;;;;;;2.30;2.10;;;27.00;74.50;;;;;;10415798;28;20283;-79
2023/07/16 11:46:35;;;;;;;2.70;2.43;;;27.10;75.50;;;;;;10414346;28;20210;-79
2023/07/16 11:51:38;;;;;;;2.20;2.00;;;27.30;75.70;;;;;;10419724;28;20283;-78
2023/07/16 11:56:40;;;;;;;3.50;2.50;;;27.30;74.80;;;;;;10422388;28;20207;-79
2023/07/16 12:01:42;;;;;;;2.57;2.43;;;27.20;73.00;;;;;;10429177;28;20213;-80
2023/07/16 12:06:47;;;;;;;2.83;2.63;;;27.20;72.50;;;;;;10425985;28;20195;-79
2023/07/16 12:11:49;;;;;;;4.03;2.50;;;27.20;72.70;;;;;;10410376;28;20218;-80
2023/07/16 12:16:51;;;;;;;3.50;2.67;;;27.20;75.40;;;;;;10427404;28;20708;-81
2023/07/16 12:21:56;;;;;;;3.60;3.30;;;27.10;73.90;;;;;;10407632;28;20190;-80
2023/07/16 12:26:58;;;;;;;2.17;2.07;;;27.00;75.10;;;;;;10426954;28;20296;-79
2023/07/16 12:32:00;;;;;;;2.30;2.10;;;26.90;75.50;;;;;;10431924;28;20223;-79
2023/07/16 12:37:04;;;;;;;2.30;2.10;;;26.90;75.30;;;;;;10429901;28;20256;-79
2023/07/16 12:42:08;;;;;;;3.23;2.20;;;26.80;76.30;;;;;;10439430;28;20210;-81
2023/07/16 12:47:10;;;;;;;2.73;2.53;;;26.60;77.60;;;;;;10411558;28;20305;-79
2023/07/16 12:52:13;;;;;;;4.30;2.50;;;26.60;80.00;;;;;;10397527;28;20223;-78
2023/07/16 12:57:15;;;;;;;2.93;2.73;;;26.60;77.20;;;;;;10422178;28;20226;-79
2023/07/16 13:02:17;;;;;;;2.50;2.30;;;26.70;74.50;;;;;;10385167;28;20207;-81
2023/07/16 13:07:21;;;;;;;2.33;2.13;;;26.70;76.10;;;;;;10415284;28;20222;-79
2023/07/16 13:12:23;;;;;;;2.30;2.20;;;26.60;79.10;;;;;;10406310;28;20218;-78
2023/07/16 13:17:25;;;;;;;2.50;2.30;;;26.50;76.50;;;;;;10391796;28;20261;-78
2023/07/16 13:22:28;;;;;;;2.20;2.10;;;26.40;83.90;;;;;;10408887;28;20268;-78
2023/07/16 13:27:30;;;;;;;2.00;1.90;;;26.30;76.20;;;;;;10410701;28;20219;-78
2023/07/16 13:32:33;;;;;;;2.77;2.57;;;26.20;79.90;;;;;;10411715;28;20245;-78
2023/07/16 13:37:36;;;;;;;2.77;2.57;;;26.20;78.20;;;;;;10391562;28;20234;-78
2023/07/16 13:42:38;;;;;;;2.60;2.40;;;26.10;79.30;;;;;;10391605;28;20306;-79
2023/07/16 13:47:41;;;;;;;2.27;2.10;;;26.20;77.10;;;;;;10410237;28;20225;-79
2023/07/16 13:52:44;;;;;;;2.40;2.20;;;26.20;80.00;;;;;;10394771;28;20214;-80
2023/07/16 13:57:47;;;;;;;3.47;2.60;;;26.40;75.80;;;;;;10390427;28;20694;-78
2023/07/16 14:02:49;;;;;;;2.90;2.70;;;26.50;80.30;;;;;;10408295;28;20194;-79
2023/07/16 14:07:53;;;;;;;3.03;2.83;;;26.70;78.00;;;;;;10409059;28;20222;-79
2023/07/16 14:13:06;;;;;;;4.30;3.37;;;26.70;80.00;;;;;;10396626;28;20229;-78
2023/07/16 14:18:10;;;;;;;3.90;2.63;;;26.80;80.30;;;;;;10383198;28;20237;-77
2023/07/16 14:23:14;;;;;;;3.43;2.40;;;26.90;78.30;;;;;;10409015;28;20572;-79
2023/07/16 14:28:16;;;;;;;2.60;2.50;;;27.10;80.10;;;;;;10389816;28;20230;-80
2023/07/16 14:33:18;;;;;;;2.50;2.40;;;27.10;78.60;;;;;;10391966;28;20238;-79
2023/07/16 14:38:22;;;;;;;3.50;3.00;;;27.00;80.20;;;;;;10408579;28;20250;-79
2023/07/16 14:43:24;;;;;;;2.23;2.03;;;27.00;80.70;;;;;;10392579;28;20206;-78
2023/07/16 14:48:27;;;;;;;2.67;2.47;;;27.00;77.80;;;;;;10390484;28;20351;-78
2023/07/16 14:53:30;;;;;;;2.80;2.60;;;27.00;81.60;;;;;;10406685;28;20280;-78
2023/07/16 14:58:33;;;;;;;3.07;2.87;;;27.10;83.10;;;;;;10409715;28;20226;-78
2023/07/16 15:03:37;;;;;;;2.77;2.57;;;27.20;81.80;;;;;;10407437;28;20257;-78
2023/07/16 15:08:40;;;;;;;3.03;2.80;;;27.10;83.90;;;;;;10401470;28;20210;-79
2023/07/16 15:13:42;;;;;;;2.70;2.47;;;27.00;79.60;;;;;;10392972;28;20217;-79
2023/07/16 15:18:45;;;;;;;2.80;2.60;;;26.90;79.90;;;;;;10404321;28;20226;-79
2023/07/16 15:23:48;;;;;;;3.13;2.77;;;26.80;81.80;;;;;;10407764;28;20195;-80
2023/07/16 15:28:50;;;;;;;2.60;2.47;;;26.80;82.80;;;;;;10411157;28;20206;-79
2023/07/16 15:33:52;;;;;;;3.10;2.20;;;26.80;79.70;;;;;;10420512;28;20306;-80
2023/07/16 15:38:56;;;;;;;2.60;2.40;;;26.90;81.50;;;;;;10389753;28;20764;-79
2023/07/16 15:43:58;;;;;;;2.70;2.50;;;27.00;79.40;;;;;;10375537;28;20245;-79
2023/07/16 15:49:00;;;;;;;3.83;2.50;;;27.00;81.40;;;;;;10411133;28;20884;-80
2023/07/16 15:54:05;;;;;;;2.70;2.50;;;27.00;79.00;;;;;;10408349;28;20741;-79
2023/07/16 15:59:08;;;;;;;2.40;2.20;;;27.00;80.20;;;;;;9534586;28;10000952;-80
2023/07/16 16:04:10;;;;;;;4.17;2.67;;;27.00;79.00;;;;;;10413684;28;20190;-80
2023/07/16 16:09:13;;;;;;;2.60;2.40;;;27.10;77.40;;;;;;10401684;28;20308;-81
2023/07/16 16:14:15;;;;;;;3.27;2.77;;;27.10;76.90;;;;;;10402509;28;20209;-80
2023/07/16 16:19:20;;;;;;;2.73;2.50;;;27.20;77.30;;;;;;10412835;28;20214;-80
2023/07/16 16:24:23;;;;;;;3.73;2.40;;;27.20;75.90;;;;;;10408674;28;20214;-82
2023/07/16 16:29:26;;;;;;;2.97;2.60;;;27.20;77.10;;;;;;10426619;28;20218;-80
2023/07/16 16:34:29;;;;;;;5.93;3.07;;;27.20;76.80;;;;;;10425613;28;20191;-79
2023/07/16 16:39:33;;;;;;;3.50;2.20;;;27.00;76.10;;;;;;9534189;28;10000539;-80
2023/07/16 16:44:35;;;;;;;4.90;2.80;;;26.80;78.90;;;;;;10407126;28;20194;-80
2023/07/16 16:49:38;;;;;;;3.90;2.97;;;26.70;76.90;;;;;;10389678;28;20230;-80
2023/07/16 16:54:43;;;;;;;3.43;3.00;;;26.70;75.50;;;;;;10409476;28;20251;-80
2023/07/16 16:59:47;;;;;;;3.17;2.50;;;26.60;79.10;;;;;;10420318;28;20747;-79
2023/07/16 17:04:49;;;;;;;6.20;3.07;;;26.60;78.60;;;;;;10405013;28;20682;-81
2023/07/16 17:09:54;;;;;;;3.30;3.00;;;26.60;79.50;;;;;;10407271;28;20641;-82
2023/07/16 17:14:57;;;;;;;3.50;3.20;;;26.60;77.80;;;;;;10408238;28;20201;-81
2023/07/16 17:19:59;;;;;;;3.93;3.63;;;26.50;78.60;;;;;;10407068;28;20211;-80
2023/07/16 17:25:05;;;;;;;5.30;2.90;;;26.40;76.60;;;;;;10406080;28;20198;-80
2023/07/16 17:30:09;;;;;;;2.93;2.73;;;26.40;80.50;;;;;;10404839;28;20223;-80
2023/07/16 17:35:11;;;;;;;3.10;2.70;;;26.40;77.30;;;;;;10400206;28;21464;-82
2023/07/16 17:40:16;;;;;;;3.10;2.77;;;26.30;76.10;;;;;;10413622;28;20276;-79
2023/07/16 17:45:18;;;;;;;3.87;3.00;;;26.30;79.00;;;;;;10416293;28;20198;-79
2023/07/16 17:50:20;;;;;;;4.27;3.10;;;26.20;80.30;;;;;;10390555;28;20226;-78
2023/07/16 17:55:23;;;;;;;3.63;3.10;;;26.20;81.10;;;;;;10414005;28;20198;-80
2023/07/16 18:00:25;;;;;;;3.00;2.80;;;26.10;80.60;;;;;;10411392;28;20221;-80
2023/07/16 18:05:29;;;;;;;3.63;3.10;;;26.00;77.80;;;;;;10399578;28;20248;-78
2023/07/16 18:10:33;;;;;;;3.80;3.47;;;26.00;77.60;;;;;;10404497;28;20992;-77
2023/07/16 18:15:37;;;;;;;3.00;2.80;;;25.90;76.80;;;;;;10382549;28;20210;-78
2023/07/16 18:20:39;;;;;;;4.33;3.10;;;25.80;76.70;;;;;;10400089;28;20217;-78
2023/07/16 18:25:42;;;;;;;3.13;2.93;;;25.70;79.80;;;;;;10382153;28;20225;-79
2023/07/16 18:30:45;;;;;;;3.03;2.83;;;25.60;78.60;;;;;;10383719;28;20221;-78
2023/07/16 18:35:49;;;;;;;3.37;2.93;;;25.50;74.60;;;;;;10401112;28;20295;-78
2023/07/16 18:40:52;;;;;;;4.23;3.83;;;25.40;76.70;;;;;;10383676;28;20254;-78
2023/07/16 18:45:56;;;;;;;3.20;3.00;;;25.30;79.90;;;;;;10381514;28;20210;-80
2023/07/16 18:50:58;;;;;;;3.53;3.23;;;25.20;78.90;;;;;;10382431;28;20783;-77
2023/07/16 18:56:02;;;;;;;3.13;2.93;;;25.10;82.80;;;;;;10382316;28;20584;-78
2023/07/16 19:01:06;;;;;;;3.70;3.40;;;25.10;83.40;;;;;;9518572;28;10000359;-78
2023/07/16 19:06:08;;;;;;;3.10;2.87;;;25.00;85.90;;;;;;10399020;28;20253;-78
2023/07/16 19:11:12;;;;;;;3.83;3.50;;;24.90;78.20;;;;;;10398860;28;20257;-79
2023/07/16 19:16:14;;;;;;;3.50;3.20;;;24.80;76.60;;;;;;10392786;28;20194;-76
2023/07/16 19:21:16;;;;;;;3.80;3.40;;;24.80;84.00;;;;;;10381352;28;20221;-77
2023/07/16 19:26:20;;;;;;;3.70;3.40;;;24.80;84.20;;;;;;10398315;28;20210;-77
2023/07/16 19:31:22;;;;;;;4.00;3.50;;;24.70;83.20;;;;;;10399288;28;20280;-79
2023/07/16 19:36:24;;;;;;;5.03;3.40;;;24.60;85.60;;;;;;10397698;28;20298;-79
2023/07/16 19:41:28;;;;;;;4.33;3.33;;;24.60;83.10;;;;;;10386895;28;20661;-78
2023/07/16 19:46:30;;;;;;;3.30;3.00;;;24.60;84.00;;;;;;10407122;28;20202;-78
2023/07/16 19:51:32;;;;;;;3.50;3.07;;;24.60;84.80;;;;;;10408625;28;20226;-79
2023/07/16 19:56:36;;;;;;;3.43;3.13;;;24.60;82.90;;;;;;10405920;28;20202;-78
2023/07/16 20:01:38;;;;;;;3.07;2.77;;;24.50;82.10;;;;;;10409795;28;20249;-79
2023/07/16 20:06:40;;;;;;;3.13;2.83;;;24.40;83.20;;;;;;10413587;28;20202;-79
2023/07/16 20:11:43;;;;;;;4.30;3.47;;;24.30;83.70;;;;;;10395162;28;20237;-78
2023/07/16 20:16:46;;;;;;;3.70;3.40;;;24.20;83.60;;;;;;10377528;28;20292;-78
2023/07/16 20:21:48;;;;;;;4.50;3.47;;;24.20;83.20;;;;;;10413797;28;20203;-78
2023/07/16 20:26:51;;;;;;;3.50;3.20;;;24.10;82.50;;;;;;10410459;28;20608;-78
2023/07/16 20:31:53;;;;;;;3.40;3.10;;;24.00;82.20;;;;;;10394726;28;20232;-78
2023/07/16 20:36:55;;;;;;;2.93;2.60;;;23.90;82.70;;;;;;10411921;28;20258;-78
2023/07/16 20:41:59;;;;;;;4.37;2.77;;;23.90;84.40;;;;;;10412056;28;20195;-78
2023/07/16 20:47:01;;;;;;;4.00;3.13;;;23.80;83.60;;;;;;10393040;28;20211;-79
2023/07/16 20:52:04;;;;;;;4.93;3.10;;;23.80;83.60;;;;;;10394257;28;20664;-77
2023/07/16 20:57:07;;;;;;;3.60;3.27;;;23.70;83.00;;;;;;10392809;28;20222;-79
2023/07/16 21:02:09;;;;;;;4.30;3.30;;;23.70;84.30;;;;;;10390635;28;20230;-78
2023/07/16 21:07:12;;;;;;;3.73;3.40;;;23.60;83.90;;;;;;10411060;28;20223;-78
2023/07/16 21:12:15;;;;;;;3.50;3.10;;;23.60;84.90;;;;;;10411593;28;20317;-78
2023/07/16 21:17:17;;;;;;;3.07;2.87;;;23.50;85.50;;;;;;10411311;28;20219;-79
2023/07/16 21:22:19;;;;;;;3.60;3.30;;;23.50;84.70;;;;;;10393547;28;20293;-78
2023/07/16 21:27:24;;;;;;;4.40;3.10;;;23.50;86.70;;;;;;10410516;28;20309;-78
2023/07/16 21:32:27;;;;;;;4.40;3.37;;;23.40;86.00;;;;;;10411316;28;20244;-78
2023/07/16 21:37:29;;;;;;;3.50;3.20;;;23.40;85.10;;;;;;10409883;28;20740;-78
2023/07/16 21:42:33;;;;;;;3.90;3.40;;;23.30;85.90;;;;;;10410330;28;20662;-78
2023/07/16 21:47:35;;;;;;;3.77;3.37;;;23.30;86.90;;;;;;10408138;28;20705;-80
2023/07/16 21:52:39;;;;;;;5.07;3.73;;;23.30;86.00;;;;;;10408178;28;20226;-80
2023/07/16 21:57:43;;;;;;;3.67;3.10;;;23.20;86.80;;;;;;10391382;28;20222;-78
2023/07/16 22:02:45;;;;;;;3.77;3.43;;;23.20;87.60;;;;;;10409057;28;20218;-78
2023/07/16 22:07:50;;;;;;;6.07;3.00;;;23.10;86.60;;;;;;10408626;28;20293;-81
2023/07/16 22:12:53;;;;;;;5.20;3.70;;;23.10;87.90;;;;;;10391547;28;20219;-79
2023/07/16 22:17:56;;;;;;;8.83;3.67;;;23.00;86.60;;;;;;10406505;28;20602;-78
2023/07/16 22:22:59;;;;;;;4.90;3.97;;;22.80;86.90;;;;;;10391052;28;20241;-78
2023/07/16 22:28:02;;;;;;;5.23;4.30;;;22.70;87.40;;;;;;10390674;28;20249;-79
2023/07/16 22:33:04;;;;;;;3.40;3.20;;;22.60;86.60;;;;;;10408701;28;20246;-78
2023/07/16 22:38:07;;;;;;;4.97;3.60;;;22.50;87.90;;;;;;10407195;28;20276;-80
2023/07/16 22:43:10;;;;;;;3.70;3.20;;;22.40;88.40;;;;;;10408252;28;20205;-80
2023/07/16 22:48:14;;;;;;;4.00;3.60;;;22.40;89.80;;;;;;10407305;28;20219;-77
2023/07/16 22:53:16;;;;;;;4.33;3.53;;;22.40;89.00;;;;;;10407664;28;20690;-78
2023/07/16 22:58:19;;;;;;;4.00;3.60;;;22.40;89.90;;;;;;10407352;28;20261;-79
2023/07/16 23:03:21;;;;;;;5.00;3.60;;;22.40;90.40;;;;;;10407525;28;20662;-77
2023/07/16 23:08:23;;;;;;;6.43;3.40;;;22.40;90.20;;;;;;10406505;28;20309;-78
2023/07/16 23:13:27;;;;;;;4.20;3.77;;;22.30;90.00;;;;;;10413837;28;20226;-77
2023/07/16 23:18:29;;;;;;;3.83;3.50;;;22.30;90.00;;;;;;10396042;28;20253;-78
2023/07/16 23:23:33;;;;;;;3.40;3.10;;;22.20;90.90;;;;;;10415641;28;20205;-78
2023/07/16 23:28:37;;;;;;;3.87;3.20;;;22.20;91.20;;;;;;10415173;28;20685;-78
2023/07/16 23:33:39;;;;;;;4.80;3.50;;;22.20;90.80;;;;;;10397045;28;20210;-78
2023/07/16 23:38:42;;;;;;;4.97;3.77;;;22.20;90.80;;;;;;10414075;28;20287;-78
2023/07/16 23:43:45;;;;;;;3.17;2.87;;;22.20;91.10;;;;;;10415128;28;20217;-78
2023/07/16 23:48:47;;;;;;;3.53;3.23;;;22.20;90.60;;;;;;10413998;28;20217;-77
2023/07/16 23:53:49;;;;;;;3.70;3.40;;;22.10;90.40;;;;;;10414520;28;20218;-76
2023/07/16 23:58:53;;;;;;;4.47;3.27;;;22.10;91.40;;;;;;10413360;28;20336;-78
